EBLG/LGG METAR and TAF weather

Enter ICAO airport designator
Station Type Date Time Source
EBLG METAR 2019/12/06 03:50 UTC NOAA

EBLG 060350Z 19017KT 9000 NSC 00/M02 Q1015 TEMPO 21018G28KT


Station Type Date Time Source
EBLG Decoded METAR 2019/12/06 03:50 UTC NOAA

Bierset, Belgium (EBLG) 50-39N 005-27E 178M
Dec 05, 2019 - 10:50 PM EST / 2019.12.06 0350 UTC
Wind: from the S (190 degrees) at 20 MPH (17 KT):0
Visibility: 5 mile(s):0
Temperature: 32 F (0 C)
Windchill: 19 F (-7 C):1
Dew Point: 28 F (-2 C)
Relative Humidity: 86%
Pressure (altimeter): 29.97 in. Hg (1015 hPa)
ob: EBLG 060350Z 19017KT 9000 NSC 00/M02 Q1015 TEMPO 21018G28KT
cycle: 4

Station Type Date Time Source
EBLG TAF 2019/12/05 18:39 UTC NOAA

TAF COR EBLG 052033Z 0518/0624 20010KT 6000 SCT011
TEMPO 0518/0605 2200 BR BKN005 PROB40
TEMPO 0518/0605 0500 FZFG BKN002
BECMG 0604/0606 21016G30KT BKN011
TEMPO 0605/0618 2000 RA RADZ BKN004 PROB30
TEMPO 0605/0607 2000 FZRA BKN004 PROB30
TEMPO 0622/0624 SCT014 PROB30
TEMPO 0622/0623 4000 SHRA BKN014TCU
BECMG 0621/0623 25011KT

Example: see airport list